createdAt,value
2023-04-16T00:00:28.835Z,2.90
2023-04-16T00:02:56.937Z,2.90
2023-04-16T00:05:24.947Z,3.00
2023-04-16T00:07:53.280Z,3.00
2023-04-16T00:10:21.396Z,3.10
2023-04-16T00:12:49.235Z,3.10
2023-04-16T00:15:16.959Z,3.10
2023-04-16T00:17:44.668Z,3.00
2023-04-16T00:20:12.543Z,3.10
2023-04-16T00:22:40.534Z,3.00
2023-04-16T00:25:08.483Z,3.00
2023-04-16T00:27:36.283Z,3.00
2023-04-16T00:30:04.470Z,3.00
2023-04-16T00:32:32.377Z,3.00
2023-04-16T00:35:02.951Z,3.00
2023-04-16T00:37:31.353Z,2.90
2023-04-16T00:40:06.037Z,2.60
2023-04-16T00:42:33.821Z,2.30
2023-04-16T00:45:01.511Z,2.20
2023-04-16T00:47:32.779Z,2.40
2023-04-16T00:50:00.986Z,2.50
2023-04-16T00:52:29.859Z,2.60
2023-04-16T00:54:59.830Z,2.70
2023-04-16T00:57:33.430Z,2.70
2023-04-16T01:00:01.188Z,2.80
2023-04-16T01:02:29.238Z,2.90
2023-04-16T01:04:57.194Z,2.90
2023-04-16T01:07:31.054Z,2.80
2023-04-16T01:10:00.395Z,2.80
2023-04-16T01:12:57.568Z,2.90
2023-04-16T01:15:43.005Z,2.90
2023-04-16T01:18:45.844Z,2.90
2023-04-16T01:21:30.344Z,3.10
2023-04-16T01:24:05.051Z,3.10
2023-04-16T01:26:36.891Z,3.20
2023-04-16T01:29:13.882Z,3.20
2023-04-16T01:31:41.651Z,3.20
2023-04-16T01:34:30.530Z,3.20
2023-04-16T01:37:01.334Z,3.20
2023-04-16T01:39:28.325Z,3.30
2023-04-16T01:41:57.660Z,3.40
2023-04-16T01:44:25.762Z,3.40
2023-04-16T01:46:52.969Z,3.40
2023-04-16T01:49:21.881Z,3.40
2023-04-16T01:51:48.986Z,3.40
2023-04-16T01:54:19.081Z,3.40
2023-04-16T01:56:46.328Z,3.50
2023-04-16T01:59:13.372Z,3.40
2023-04-16T02:01:42.701Z,3.50
2023-04-16T02:04:10.675Z,3.50
2023-04-16T02:06:39.413Z,3.50
2023-04-16T02:09:06.761Z,3.50
2023-04-16T02:11:34.403Z,3.50
2023-04-16T02:14:01.528Z,3.50
2023-04-16T02:16:28.776Z,3.40
2023-04-16T02:19:05.293Z,3.40
2023-04-16T02:21:35.687Z,3.40
2023-04-16T02:24:02.928Z,3.40
2023-04-16T02:26:31.119Z,3.40
2023-04-16T02:29:04.210Z,3.50
2023-04-16T02:31:38.835Z,3.50
2023-04-16T02:34:07.211Z,3.50
2023-04-16T02:36:34.358Z,3.50
2023-04-16T02:39:01.773Z,3.50
2023-04-16T02:41:28.842Z,3.50
2023-04-16T02:43:56.585Z,3.50
2023-04-16T02:46:24.127Z,3.40
2023-04-16T02:48:51.506Z,3.40
2023-04-16T02:51:18.628Z,3.30
2023-04-16T02:53:46.280Z,3.40
2023-04-16T02:56:14.061Z,3.40
2023-04-16T02:58:41.137Z,3.40
2023-04-16T03:01:08.286Z,3.50
2023-04-16T03:03:35.726Z,3.50
2023-04-16T03:06:02.797Z,3.50
2023-04-16T03:08:29.791Z,3.50
2023-04-16T03:10:56.954Z,3.50
2023-04-16T03:13:23.934Z,3.40
2023-04-16T03:15:51.213Z,3.40
2023-04-16T03:18:18.342Z,3.40
2023-04-16T03:20:45.591Z,3.40
2023-04-16T03:23:15.248Z,3.40
2023-04-16T03:25:43.761Z,3.50
2023-04-16T03:28:11.129Z,3.60
2023-04-16T03:30:39.234Z,3.60
2023-04-16T03:33:07.961Z,3.60
2023-04-16T03:35:38.455Z,3.70
2023-04-16T03:38:05.638Z,3.60
2023-04-16T03:40:32.910Z,3.60
2023-04-16T03:43:00.699Z,3.60
2023-04-16T03:45:28.700Z,3.60
2023-04-16T03:47:56.058Z,3.60
2023-04-16T03:50:25.939Z,3.60
2023-04-16T03:52:53.287Z,3.60
2023-04-16T03:55:20.451Z,3.50
2023-04-16T03:57:47.566Z,3.50
2023-04-16T04:00:16.649Z,3.30
2023-04-16T04:03:06.331Z,3.30
2023-04-16T04:05:41.580Z,3.30
2023-04-16T04:08:11.441Z,3.30
2023-04-16T04:10:38.854Z,3.30
2023-04-16T04:13:08.049Z,3.30
2023-04-16T04:15:36.208Z,3.30
2023-04-16T04:18:03.297Z,3.40
2023-04-16T04:20:30.642Z,3.40
2023-04-16T04:22:58.650Z,3.50
2023-04-16T04:25:26.716Z,3.50
2023-04-16T04:27:53.940Z,3.60
2023-04-16T04:30:21.122Z,3.50
2023-04-16T04:32:48.354Z,3.50
2023-04-16T04:35:16.660Z,3.50
2023-04-16T04:37:43.989Z,3.50
2023-04-16T04:40:15.428Z,3.60
2023-04-16T04:42:48.817Z,3.60
2023-04-16T04:45:16.241Z,3.60
2023-04-16T04:47:43.478Z,3.60
2023-04-16T04:50:11.297Z,3.60
2023-04-16T04:52:38.518Z,3.60
2023-04-16T04:55:06.915Z,3.70
2023-04-16T04:57:33.997Z,3.80
2023-04-16T05:00:04.348Z,3.80
2023-04-16T05:02:40.444Z,3.80
2023-04-16T05:05:10.092Z,3.70
2023-04-16T05:07:37.362Z,3.70
2023-04-16T05:10:04.569Z,3.70
2023-04-16T05:12:31.625Z,3.60
2023-04-16T05:14:58.681Z,3.60
2023-04-16T05:17:25.841Z,3.70
2023-04-16T05:19:52.850Z,3.70
2023-04-16T05:22:19.843Z,3.80
2023-04-16T05:24:47.061Z,3.90
2023-04-16T05:27:14.067Z,4.00
2023-04-16T05:29:41.553Z,3.90
2023-04-16T05:32:09.143Z,3.90
2023-04-16T05:34:36.275Z,4.10
2023-04-16T05:37:03.330Z,4.20
2023-04-16T05:39:30.568Z,4.20
2023-04-16T05:41:57.553Z,4.30
2023-04-16T05:44:27.586Z,4.40
2023-04-16T05:46:54.761Z,4.30
2023-04-16T05:49:22.387Z,4.40
2023-04-16T05:51:50.888Z,4.40
2023-04-16T05:54:18.175Z,4.40
2023-04-16T05:56:45.233Z,4.50
2023-04-16T05:59:12.455Z,4.60
2023-04-16T06:01:39.582Z,4.70
2023-04-16T06:04:06.848Z,4.80
2023-04-16T06:06:33.988Z,4.80
2023-04-16T06:09:01.113Z,4.80
2023-04-16T06:11:29.515Z,4.80
2023-04-16T06:13:56.682Z,4.80
2023-04-16T06:16:23.791Z,4.80
2023-04-16T06:18:50.900Z,4.90
2023-04-16T06:21:18.015Z,4.80
2023-04-16T06:23:45.126Z,4.70
2023-04-16T06:26:12.384Z,4.70
2023-04-16T06:28:39.321Z,4.70
2023-04-16T06:31:06.423Z,4.80
2023-04-16T06:33:33.590Z,4.80
2023-04-16T06:36:00.523Z,4.60
2023-04-16T06:38:27.629Z,4.80
2023-04-16T06:40:54.848Z,4.80
2023-04-16T06:43:22.241Z,4.80
2023-04-16T06:45:51.959Z,4.90
2023-04-16T06:48:18.986Z,5.00
2023-04-16T06:50:46.264Z,5.10
2023-04-16T06:53:13.386Z,5.20
2023-04-16T06:55:40.824Z,5.20
2023-04-16T06:58:07.881Z,5.30
2023-04-16T07:00:35.072Z,5.20
2023-04-16T07:03:02.371Z,5.10
2023-04-16T07:05:29.592Z,5.20
2023-04-16T07:07:57.834Z,5.40
2023-04-16T07:10:25.619Z,5.30
2023-04-16T07:12:52.756Z,5.20
2023-04-16T07:15:19.878Z,5.00
2023-04-16T07:17:46.845Z,4.60
2023-04-16T07:20:13.856Z,4.30
2023-04-16T07:22:40.967Z,4.10
2023-04-16T07:25:08.538Z,3.90
2023-04-16T07:27:35.519Z,3.60
2023-04-16T07:30:02.564Z,3.60
2023-04-16T07:32:29.591Z,3.60
2023-04-16T07:34:56.891Z,3.70
2023-04-16T07:37:23.941Z,3.80
2023-04-16T07:39:51.906Z,4.20
2023-04-16T07:42:22.039Z,4.70
2023-04-16T07:44:49.071Z,5.20
2023-04-16T07:47:16.058Z,5.50
2023-04-16T07:49:43.028Z,5.60
2023-04-16T07:52:10.101Z,5.90
2023-04-16T07:54:37.201Z,6.10
2023-04-16T07:57:04.340Z,6.10
2023-04-16T07:59:31.379Z,6.10
2023-04-16T08:01:58.514Z,6.10
2023-04-16T08:04:26.539Z,6.10
2023-04-16T08:06:54.286Z,6.10
2023-04-16T08:09:26.672Z,6.10
2023-04-16T08:11:53.782Z,6.00
2023-04-16T08:14:21.133Z,5.80
2023-04-16T08:16:48.080Z,5.60
2023-04-16T08:19:15.027Z,5.30
2023-04-16T08:21:42.201Z,5.20
2023-04-16T08:24:09.239Z,5.00
2023-04-16T08:26:36.331Z,5.00
2023-04-16T08:29:05.903Z,5.00
2023-04-16T08:31:33.976Z,5.00
2023-04-16T08:34:01.690Z,5.20
2023-04-16T08:36:28.745Z,5.50
2023-04-16T08:38:55.779Z,5.90
2023-04-16T08:41:24.355Z,6.40
2023-04-16T08:43:53.846Z,7.00
2023-04-16T08:46:25.060Z,7.60
2023-04-16T08:48:55.009Z,8.00
2023-04-16T08:51:24.205Z,8.70
2023-04-16T08:54:00.362Z,9.20
2023-04-16T08:56:28.094Z,9.30
2023-04-16T08:58:55.547Z,9.40
2023-04-16T09:01:22.908Z,9.40
2023-04-16T09:03:50.132Z,9.30
2023-04-16T09:06:18.515Z,9.20
2023-04-16T09:08:46.607Z,9.10
2023-04-16T09:11:20.606Z,9.00
2023-04-16T09:13:48.134Z,8.70
2023-04-16T09:16:15.512Z,8.50
2023-04-16T09:18:42.747Z,8.50
2023-04-16T09:21:13.837Z,8.40
2023-04-16T09:23:41.290Z,8.50
2023-04-16T09:26:08.335Z,8.40
2023-04-16T09:28:46.722Z,8.40
2023-04-16T09:31:15.842Z,8.20
2023-04-16T09:33:44.262Z,8.00
2023-04-16T09:36:11.484Z,7.70
2023-04-16T09:38:53.685Z,7.50
2023-04-16T09:41:30.309Z,7.40
2023-04-16T09:43:58.329Z,7.30
2023-04-16T09:46:39.571Z,7.50
2023-04-16T09:49:17.787Z,7.80
2023-04-16T09:51:51.085Z,8.20
2023-04-16T09:54:19.780Z,8.40
2023-04-16T09:56:47.465Z,8.50
2023-04-16T09:59:18.922Z,8.40
2023-04-16T10:01:50.061Z,8.30
2023-04-16T10:04:17.569Z,8.20
2023-04-16T10:06:47.127Z,8.10
2023-04-16T10:09:14.107Z,7.90
2023-04-16T10:11:41.204Z,7.80
2023-04-16T10:14:09.062Z,7.60
2023-04-16T10:16:36.339Z,7.50
2023-04-16T10:19:03.664Z,7.40
2023-04-16T10:21:34.412Z,7.30
2023-04-16T10:24:01.916Z,7.20
2023-04-16T10:26:31.330Z,7.10
2023-04-16T10:28:59.576Z,7.20
2023-04-16T10:31:27.573Z,7.40
2023-04-16T10:33:56.414Z,7.60
2023-04-16T10:36:25.155Z,7.80
2023-04-16T10:38:53.628Z,7.90
2023-04-16T10:41:21.350Z,7.90
2023-04-16T10:43:52.771Z,7.70
2023-04-16T10:46:22.303Z,7.70
2023-04-16T10:48:54.323Z,7.70
2023-04-16T10:51:33.247Z,7.70
2023-04-16T10:54:05.264Z,7.80
2023-04-16T10:56:36.987Z,7.90
2023-04-16T10:59:10.353Z,7.80
2023-04-16T11:01:41.674Z,7.60
2023-04-16T11:04:21.694Z,7.30
2023-04-16T11:07:18.817Z,7.30
2023-04-16T11:10:04.786Z,7.40
2023-04-16T11:12:47.823Z,7.50
2023-04-16T11:15:21.637Z,7.70
2023-04-16T11:17:53.524Z,7.80
2023-04-16T11:20:24.708Z,7.90
2023-04-16T11:22:55.106Z,7.80
2023-04-16T11:25:31.953Z,7.70
2023-04-16T11:27:59.358Z,7.80
2023-04-16T11:30:39.728Z,7.60
2023-04-16T11:33:09.798Z,7.40
2023-04-16T11:35:37.501Z,7.20
2023-04-16T11:38:06.707Z,7.10
2023-04-16T11:40:33.946Z,7.00
2023-04-16T11:43:14.476Z,7.00
2023-04-16T11:45:55.033Z,6.90
2023-04-16T11:48:22.631Z,6.90
2023-04-16T11:50:57.381Z,7.10
2023-04-16T11:53:24.992Z,7.00
2023-04-16T11:55:52.109Z,6.80
2023-04-16T11:58:20.309Z,6.70
2023-04-16T12:00:53.540Z,6.90
2023-04-16T12:03:44.345Z,7.00
2023-04-16T12:06:14.123Z,7.10
2023-04-16T12:08:41.405Z,7.20
2023-04-16T12:11:08.399Z,7.20
2023-04-16T12:13:40.318Z,7.10
2023-04-16T12:16:18.845Z,7.20
2023-04-16T12:19:00.693Z,7.00
2023-04-16T12:21:43.611Z,6.90
2023-04-16T12:24:24.897Z,6.90
2023-04-16T12:27:03.453Z,6.80
2023-04-16T12:29:30.660Z,6.50
2023-04-16T12:31:58.405Z,6.40
2023-04-16T12:34:47.792Z,6.40
2023-04-16T12:37:13.847Z,6.30
2023-04-16T12:39:41.723Z,6.50
2023-04-16T12:42:11.467Z,6.60
2023-04-16T12:44:38.481Z,6.60
2023-04-16T12:47:05.761Z,6.50
2023-04-16T12:49:32.747Z,6.30
2023-04-16T12:51:59.808Z,6.20
2023-04-16T12:54:31.293Z,6.10
2023-04-16T12:56:58.409Z,6.00
2023-04-16T12:59:25.538Z,5.90
2023-04-16T13:01:52.755Z,5.80
2023-04-16T13:04:20.662Z,5.80
2023-04-16T13:06:48.584Z,5.70
2023-04-16T13:09:15.711Z,5.50
2023-04-16T13:11:42.726Z,5.40
2023-04-16T13:14:09.760Z,5.40
2023-04-16T13:16:38.894Z,5.30
2023-04-16T13:19:06.117Z,5.30
2023-04-16T13:21:34.300Z,5.20
2023-04-16T13:24:01.349Z,5.30
2023-04-16T13:26:28.483Z,5.30
2023-04-16T13:28:55.531Z,5.30
2023-04-16T13:31:22.769Z,5.40
2023-04-16T13:33:50.904Z,5.30
2023-04-16T13:36:17.952Z,5.20
2023-04-16T13:38:45.000Z,5.10
2023-04-16T13:41:12.134Z,5.00
2023-04-16T13:43:39.174Z,5.00
2023-04-16T13:46:06.327Z,4.80
2023-04-16T13:48:33.533Z,4.80
2023-04-16T13:51:00.777Z,4.90
2023-04-16T13:53:27.802Z,5.00
2023-04-16T13:55:54.909Z,5.20
2023-04-16T13:58:38.962Z,5.40
2023-04-16T14:01:48.115Z,5.70
2023-04-16T14:05:34.533Z,5.60
2023-04-16T14:08:01.969Z,5.70
2023-04-16T14:10:29.031Z,6.00
2023-04-16T14:12:58.023Z,6.10
2023-04-16T14:15:27.687Z,6.20
2023-04-16T14:17:54.859Z,6.30
2023-04-16T14:20:22.002Z,6.30
2023-04-16T14:22:49.061Z,6.30
2023-04-16T14:25:16.275Z,6.40
2023-04-16T14:27:43.297Z,6.40
2023-04-16T14:30:10.535Z,6.40
2023-04-16T14:32:37.632Z,6.50
2023-04-16T14:35:05.907Z,6.60
2023-04-16T14:37:35.944Z,6.60
2023-04-16T14:40:09.070Z,6.50
2023-04-16T14:42:37.772Z,6.50
2023-04-16T14:45:06.791Z,6.60
2023-04-16T14:47:38.264Z,6.70
2023-04-16T14:50:08.898Z,6.90
2023-04-16T14:52:35.901Z,6.80
2023-04-16T14:55:02.918Z,6.90
2023-04-16T14:57:30.079Z,7.10
2023-04-16T14:59:57.095Z,7.40
2023-04-16T15:02:24.274Z,7.50
2023-04-16T15:04:51.484Z,7.50
2023-04-16T15:07:18.548Z,7.50
2023-04-16T15:09:45.571Z,7.50
2023-04-16T15:12:12.617Z,7.40
2023-04-16T15:14:39.703Z,7.40
2023-04-16T15:17:06.858Z,7.50
2023-04-16T15:19:33.896Z,7.50
2023-04-16T15:22:00.912Z,7.50
2023-04-16T15:24:27.941Z,7.50
2023-04-16T15:26:55.078Z,7.40
2023-04-16T15:29:22.081Z,7.30
2023-04-16T15:31:49.103Z,7.20
2023-04-16T15:34:17.531Z,7.10
2023-04-16T15:36:44.607Z,7.10
2023-04-16T15:39:11.892Z,7.20
2023-04-16T15:41:50.156Z,7.10
2023-04-16T15:44:24.347Z,7.00
2023-04-16T15:46:51.433Z,7.10
2023-04-16T15:49:18.654Z,7.10
2023-04-16T15:51:46.414Z,7.00
2023-04-16T15:54:13.458Z,7.00
2023-04-16T15:56:40.543Z,7.10
2023-04-16T15:59:08.274Z,7.00
2023-04-16T16:01:35.591Z,7.00
2023-04-16T16:04:08.085Z,6.90
2023-04-16T16:06:38.192Z,6.90
2023-04-16T16:09:08.455Z,6.90
2023-04-16T16:11:38.512Z,7.00
2023-04-16T16:14:05.722Z,6.90
2023-04-16T16:16:33.449Z,6.80
2023-04-16T16:19:00.493Z,6.80
2023-04-16T16:21:29.713Z,6.80
2023-04-16T16:23:57.154Z,6.80
2023-04-16T16:26:24.387Z,6.90
2023-04-16T16:28:51.352Z,6.90
2023-04-16T16:31:18.501Z,6.90
2023-04-16T16:33:45.684Z,6.70
2023-04-16T16:36:13.106Z,6.60
2023-04-16T16:38:41.293Z,6.50
2023-04-16T16:41:08.605Z,6.30
2023-04-16T16:43:36.765Z,6.30
2023-04-16T16:46:04.937Z,6.10
2023-04-16T16:48:32.037Z,5.70
2023-04-16T16:51:02.077Z,5.60
2023-04-16T16:53:29.067Z,5.60
2023-04-16T16:55:56.188Z,5.60
2023-04-16T16:58:23.138Z,5.60
2023-04-16T17:00:50.182Z,5.70
2023-04-16T17:03:17.563Z,5.80
2023-04-16T17:05:44.762Z,5.80
2023-04-16T17:08:12.207Z,5.80
2023-04-16T17:10:39.295Z,5.90
2023-04-16T17:13:06.339Z,5.90
2023-04-16T17:15:33.307Z,5.90
2023-04-16T17:18:00.371Z,5.90
2023-04-16T17:20:27.524Z,5.90
2023-04-16T17:22:54.676Z,5.90
2023-04-16T17:25:21.686Z,5.90
2023-04-16T17:27:48.800Z,5.90
2023-04-16T17:30:16.068Z,5.90
2023-04-16T17:32:43.363Z,5.90
2023-04-16T17:35:11.186Z,5.80
2023-04-16T17:37:38.159Z,5.70
2023-04-16T17:40:07.742Z,5.80
2023-04-16T17:42:37.942Z,5.60
2023-04-16T17:45:05.404Z,5.50
2023-04-16T17:47:36.039Z,5.40
2023-04-16T17:50:04.163Z,5.40
2023-04-16T17:52:31.502Z,5.30
2023-04-16T17:55:01.759Z,5.20
2023-04-16T17:57:29.201Z,5.10
2023-04-16T17:59:57.009Z,5.20
2023-04-16T18:02:24.451Z,5.00
2023-04-16T18:04:52.053Z,4.90
2023-04-16T18:07:19.546Z,4.60
2023-04-16T18:09:46.714Z,4.50
2023-04-16T18:12:14.100Z,4.60
2023-04-16T18:14:44.775Z,4.70
2023-04-16T18:17:12.599Z,4.90
2023-04-16T18:19:40.833Z,5.00
2023-04-16T18:22:07.816Z,5.10
2023-04-16T18:24:36.620Z,5.10
2023-04-16T18:27:04.092Z,5.00
2023-04-16T18:29:33.930Z,5.00
2023-04-16T18:32:04.599Z,4.90
2023-04-16T18:34:32.219Z,4.80
2023-04-16T18:37:02.657Z,4.70
2023-04-16T18:39:32.265Z,4.60
2023-04-16T18:41:59.276Z,4.50
2023-04-16T18:44:26.561Z,4.50
2023-04-16T18:46:53.637Z,4.30
2023-04-16T18:49:20.723Z,4.20
2023-04-16T18:51:47.718Z,4.20
2023-04-16T18:54:14.778Z,4.10
2023-04-16T18:56:41.922Z,3.90
2023-04-16T18:59:09.154Z,3.70
2023-04-16T19:01:36.461Z,3.60
2023-04-16T19:04:03.696Z,3.50
2023-04-16T19:06:31.999Z,3.40
2023-04-16T19:08:58.991Z,3.40
2023-04-16T19:11:27.833Z,3.40
2023-04-16T19:13:55.061Z,3.30
2023-04-16T19:16:22.068Z,3.30
2023-04-16T19:18:49.071Z,3.20
2023-04-16T19:21:16.251Z,3.20
2023-04-16T19:23:43.320Z,3.10
2023-04-16T19:26:10.468Z,3.00
2023-04-16T19:28:42.510Z,3.10
2023-04-16T19:31:09.838Z,3.20
2023-04-16T19:33:36.822Z,3.20
2023-04-16T19:36:04.116Z,3.10
2023-04-16T19:38:34.289Z,3.10
2023-04-16T19:41:01.526Z,3.10
2023-04-16T19:43:32.136Z,3.20
2023-04-16T19:45:59.409Z,3.10
2023-04-16T19:48:26.675Z,3.10
2023-04-16T19:50:53.898Z,3.00
2023-04-16T19:53:21.581Z,3.00
2023-04-16T19:55:48.585Z,2.90
2023-04-16T19:58:15.673Z,2.80
2023-04-16T20:00:42.741Z,2.80
2023-04-16T20:03:09.909Z,2.90
2023-04-16T20:05:37.031Z,3.10
2023-04-16T20:08:04.208Z,3.30
2023-04-16T20:10:31.812Z,3.40
2023-04-16T20:13:01.762Z,3.60
2023-04-16T20:15:28.724Z,3.80
2023-04-16T20:17:56.464Z,3.90
2023-04-16T20:20:28.657Z,4.10
2023-04-16T20:22:55.952Z,4.10
2023-04-16T20:25:22.937Z,4.20
2023-04-16T20:27:49.952Z,4.30
2023-04-16T20:30:16.934Z,4.30
2023-04-16T20:32:44.040Z,4.20
2023-04-16T20:35:11.631Z,4.10
2023-04-16T20:37:42.248Z,4.10
2023-04-16T20:40:11.040Z,4.00
2023-04-16T20:42:38.112Z,3.90
2023-04-16T20:45:05.827Z,3.90
2023-04-16T20:47:34.997Z,3.80
2023-04-16T20:50:02.911Z,3.70
2023-04-16T20:52:30.007Z,3.60
2023-04-16T20:54:57.059Z,3.50
2023-04-16T20:57:24.103Z,3.50
2023-04-16T20:59:51.295Z,3.40
2023-04-16T21:02:18.463Z,3.30
2023-04-16T21:04:45.886Z,3.20
2023-04-16T21:07:13.003Z,3.20
2023-04-16T21:09:40.035Z,3.30
2023-04-16T21:12:07.348Z,3.30
2023-04-16T21:14:34.324Z,3.30
2023-04-16T21:17:01.423Z,3.30
2023-04-16T21:19:28.410Z,3.20
2023-04-16T21:21:55.396Z,3.20
2023-04-16T21:24:22.373Z,3.20
2023-04-16T21:26:49.419Z,3.10
2023-04-16T21:29:16.573Z,3.00
2023-04-16T21:31:43.684Z,3.10
2023-04-16T21:34:10.933Z,3.00
2023-04-16T21:36:37.923Z,2.90
2023-04-16T21:39:04.966Z,2.90
2023-04-16T21:41:32.383Z,2.90
2023-04-16T21:43:59.502Z,2.90
2023-04-16T21:46:27.207Z,2.90
2023-04-16T21:48:54.483Z,2.90
2023-04-16T21:51:29.288Z,3.00
2023-04-16T21:53:56.995Z,3.00
2023-04-16T21:56:24.872Z,3.10
2023-04-16T21:58:51.932Z,3.20
2023-04-16T22:01:18.998Z,3.60
2023-04-16T22:03:50.848Z,3.90
2023-04-16T22:06:18.090Z,4.10
2023-04-16T22:08:45.496Z,4.30
2023-04-16T22:11:12.571Z,4.40
2023-04-16T22:13:42.164Z,4.50
2023-04-16T22:16:11.557Z,4.60
2023-04-16T22:18:38.944Z,4.60
2023-04-16T22:21:06.081Z,4.80
2023-04-16T22:23:33.141Z,4.80
2023-04-16T22:26:00.214Z,4.90
2023-04-16T22:28:27.546Z,5.00
2023-04-16T22:30:54.534Z,5.00
2023-04-16T22:33:21.753Z,4.90
2023-04-16T22:35:48.758Z,4.60
2023-04-16T22:38:16.632Z,4.30
2023-04-16T22:40:43.728Z,4.10
2023-04-16T22:43:11.032Z,3.90
2023-04-16T22:45:38.238Z,3.90
2023-04-16T22:48:05.325Z,3.80
2023-04-16T22:50:32.579Z,3.80
2023-04-16T22:52:59.543Z,3.70
2023-04-16T22:55:26.826Z,3.60
2023-04-16T22:57:54.099Z,3.50
2023-04-16T23:00:21.415Z,3.40
2023-04-16T23:02:48.556Z,3.30
2023-04-16T23:05:15.932Z,3.30
2023-04-16T23:07:42.939Z,3.60
2023-04-16T23:10:10.163Z,3.90
2023-04-16T23:12:40.300Z,4.10
2023-04-16T23:15:07.821Z,4.20
2023-04-16T23:17:35.329Z,4.30
2023-04-16T23:20:02.988Z,4.50
2023-04-16T23:22:30.069Z,4.60
2023-04-16T23:24:57.121Z,4.70
2023-04-16T23:27:24.209Z,4.70
2023-04-16T23:29:54.268Z,4.70
2023-04-16T23:32:21.311Z,4.80
2023-04-16T23:34:48.325Z,4.80
2023-04-16T23:37:15.731Z,4.90
2023-04-16T23:39:42.783Z,4.90
2023-04-16T23:42:09.793Z,4.80
2023-04-16T23:44:36.812Z,4.40
2023-04-16T23:47:03.921Z,4.00
2023-04-16T23:49:31.022Z,3.70
2023-04-16T23:51:58.028Z,3.50
2023-04-16T23:54:25.022Z,3.40
2023-04-16T23:56:51.998Z,3.40
2023-04-16T23:59:19.002Z,3.40
